createdAt,value
2023-01-02T00:01:20.517Z,0.40
2023-01-02T00:06:21.919Z,0.40
2023-01-02T00:11:23.298Z,0.50
2023-01-02T00:16:24.915Z,0.40
2023-01-02T00:21:26.373Z,0.40
2023-01-02T00:26:27.778Z,0.40
2023-01-02T00:31:29.330Z,0.35
2023-01-02T00:36:30.738Z,0.43
2023-01-02T00:41:32.120Z,0.43
2023-01-02T00:46:33.592Z,0.50
2023-01-02T00:51:35.012Z,0.50
2023-01-02T00:56:36.449Z,0.47
2023-01-02T01:01:37.920Z,0.50
2023-01-02T01:06:39.414Z,0.40
2023-01-02T01:11:40.801Z,0.30
2023-01-02T01:21:43.788Z,0.60
2023-01-02T01:26:45.162Z,0.40
2023-01-02T01:31:46.715Z,0.50
2023-01-02T01:36:48.195Z,0.60
2023-01-02T01:41:49.663Z,0.40
2023-01-02T01:46:51.082Z,0.40
2023-01-02T01:51:58.241Z,0.30
2023-01-02T01:57:02.819Z,0.40
2023-01-02T02:02:04.408Z,0.43
2023-01-02T02:07:06.025Z,0.50
2023-01-02T02:12:07.434Z,0.40
2023-01-02T02:17:34.138Z,0.40
2023-01-02T02:22:44.558Z,0.30
2023-01-02T02:28:03.578Z,0.30
2023-01-02T02:33:12.885Z,0.30
2023-01-02T02:38:29.388Z,0.50
2023-01-02T02:44:12.438Z,0.50
2023-01-02T02:49:19.747Z,0.47
2023-01-02T02:54:33.563Z,0.60
2023-01-02T02:59:35.572Z,0.60
2023-01-02T03:04:38.193Z,0.50
2023-01-02T03:10:00.954Z,0.50
2023-01-02T03:15:24.561Z,0.60
2023-01-02T03:20:28.151Z,0.50
2023-01-02T03:25:29.793Z,0.60
2023-01-02T03:30:31.258Z,0.60
2023-01-02T03:35:37.776Z,0.60
2023-01-02T03:40:44.014Z,0.40
2023-01-02T03:46:08.915Z,0.60
2023-01-02T03:51:10.360Z,0.47
2023-01-02T03:56:13.930Z,0.50
2023-01-02T04:01:50.124Z,0.45
2023-01-02T04:06:56.082Z,0.50
2023-01-02T04:12:03.883Z,0.30
2023-01-02T04:17:05.397Z,0.40
2023-01-02T04:22:08.106Z,0.35
2023-01-02T04:27:20.664Z,0.60
2023-01-02T04:32:33.511Z,0.40
2023-01-02T04:37:39.698Z,0.50
2023-01-02T04:42:41.091Z,0.35
2023-01-02T04:47:42.529Z,0.60
2023-01-02T04:52:43.964Z,0.60
2023-01-02T04:57:45.364Z,0.60
2023-01-02T05:02:46.867Z,0.52
2023-01-02T05:07:48.294Z,0.50
2023-01-02T05:12:49.693Z,0.55
2023-01-02T05:17:51.065Z,0.70
2023-01-02T05:23:10.847Z,0.60
2023-01-02T05:28:12.280Z,0.50
2023-01-02T05:33:13.663Z,0.50
2023-01-02T05:38:15.062Z,0.60
2023-01-02T05:43:16.439Z,0.50
2023-01-02T05:48:17.815Z,0.45
2023-01-02T05:53:19.230Z,0.68
2023-01-02T05:58:20.630Z,0.65
2023-01-02T06:03:22.148Z,0.50
2023-01-02T06:08:23.687Z,0.50
2023-01-02T06:13:25.068Z,0.40
2023-01-02T06:18:26.704Z,0.52
2023-01-02T06:23:28.156Z,0.50
2023-01-02T06:28:29.535Z,0.50
2023-01-02T06:33:31.018Z,0.50
2023-01-02T06:38:32.414Z,0.50
2023-01-02T06:43:33.957Z,0.30
2023-01-02T06:48:35.787Z,0.40
2023-01-02T06:53:38.205Z,0.60
2023-01-02T06:58:39.643Z,0.60
2023-01-02T07:03:41.107Z,0.65
2023-01-02T07:08:43.188Z,0.50
2023-01-02T07:13:44.979Z,0.40
2023-01-02T07:18:46.363Z,0.47
2023-01-02T07:23:47.777Z,0.52
2023-01-02T07:28:49.304Z,0.60
2023-01-02T07:33:50.751Z,0.60
2023-01-02T07:38:52.835Z,0.40
2023-01-02T07:43:55.186Z,0.70
2023-01-02T07:48:56.578Z,0.70
2023-01-02T07:53:57.987Z,0.60
2023-01-02T07:58:59.361Z,0.60
2023-01-02T08:04:00.796Z,0.73
2023-01-02T08:09:02.212Z,0.43
2023-01-02T08:14:03.597Z,0.68
2023-01-02T08:19:05.076Z,0.60
2023-01-02T08:24:08.041Z,0.60
2023-01-02T08:29:09.483Z,0.60
2023-01-02T08:34:14.417Z,0.55
2023-01-02T08:39:15.791Z,0.67
2023-01-02T08:44:17.155Z,0.50
2023-01-02T08:49:18.603Z,0.35
2023-01-02T08:54:20.060Z,0.63
2023-01-02T08:59:23.037Z,0.60
2023-01-02T09:04:24.407Z,0.60
2023-01-02T09:09:25.830Z,0.45
2023-01-02T09:14:27.216Z,0.60
2023-01-02T09:19:28.644Z,0.50
2023-01-02T09:24:30.067Z,0.60
2023-01-02T09:29:31.431Z,0.60
2023-01-02T09:34:32.805Z,0.43
2023-01-02T09:39:34.226Z,0.82
2023-01-02T09:44:38.168Z,0.50
2023-01-02T09:49:47.338Z,0.68
2023-01-02T09:54:48.766Z,0.50
2023-01-02T09:59:51.234Z,0.50
2023-01-02T10:05:27.976Z,0.50
2023-01-02T10:10:32.215Z,0.50
2023-01-02T10:15:33.614Z,0.50
2023-01-02T10:20:39.590Z,0.50
2023-01-02T10:30:50.667Z,0.30
2023-01-02T10:35:57.854Z,0.50
2023-01-02T10:40:59.230Z,0.50
2023-01-02T10:46:01.712Z,0.50
2023-01-02T10:51:06.001Z,0.50
2023-01-02T10:56:20.437Z,0.70
2023-01-02T11:01:22.053Z,0.50
2023-01-02T11:06:28.213Z,0.43
2023-01-02T11:11:32.243Z,0.65
2023-01-02T11:16:37.243Z,0.50
2023-01-02T11:21:41.562Z,0.30
2023-01-02T11:26:43.748Z,0.43
2023-01-02T11:31:46.168Z,0.40
2023-01-02T11:37:13.964Z,0.35
2023-01-02T11:42:39.525Z,0.60
2023-01-02T11:53:02.989Z,0.50
2023-01-02T11:58:28.688Z,0.40
2023-01-02T12:03:32.863Z,0.50
2023-01-02T12:09:01.283Z,0.50
2023-01-02T12:14:17.235Z,0.50
2023-01-02T12:20:03.379Z,0.60
2023-01-02T12:25:19.953Z,0.60
2023-01-02T12:30:21.336Z,0.70
2023-01-02T12:35:32.051Z,0.57
2023-01-02T12:40:38.770Z,0.50
2023-01-02T12:45:44.446Z,0.40
2023-01-02T12:51:19.548Z,0.45
2023-01-02T12:56:44.559Z,0.40
2023-01-02T13:02:16.578Z,0.47
2023-01-02T13:07:29.068Z,0.40
2023-01-02T13:12:30.889Z,0.40
2023-01-02T13:17:58.217Z,0.50
2023-01-02T13:23:11.571Z,0.40
2023-01-02T13:28:13.501Z,0.40
2023-01-02T13:33:28.170Z,0.45
2023-01-02T13:38:30.326Z,0.60
2023-01-02T13:43:32.059Z,0.50
2023-01-02T13:48:35.106Z,0.38
2023-01-02T13:53:38.661Z,0.40
2023-01-02T13:58:51.513Z,0.50
2023-01-02T14:04:08.104Z,0.50
2023-01-02T14:09:15.756Z,0.50
2023-01-02T14:14:37.349Z,0.40
2023-01-02T14:19:39.329Z,0.32
2023-01-02T14:24:42.760Z,0.45
2023-01-02T14:29:54.606Z,0.50
2023-01-02T14:34:56.667Z,0.40
2023-01-02T14:40:10.219Z,0.40
2023-01-02T14:45:20.795Z,0.43
2023-01-02T14:50:23.940Z,0.30
2023-01-02T14:55:27.011Z,0.50
2023-01-02T15:00:34.677Z,0.43
2023-01-02T15:05:39.039Z,0.40
2023-01-02T15:10:57.088Z,0.40
2023-01-02T15:15:58.855Z,0.30
2023-01-02T15:21:13.847Z,0.28
2023-01-02T15:26:44.614Z,0.27
2023-01-02T15:31:54.201Z,0.30
2023-01-02T15:36:56.137Z,0.32
2023-01-02T15:41:57.521Z,0.20
2023-01-02T15:46:59.051Z,0.20
2023-01-02T15:52:00.419Z,0.30
2023-01-02T15:57:10.890Z,0.20
2023-01-02T16:02:30.794Z,0.10
2023-01-02T16:07:36.584Z,0.30
2023-01-02T16:12:37.985Z,0.10
2023-01-02T16:17:39.381Z,0.20
2023-01-02T16:22:43.770Z,0.20
2023-01-02T16:27:51.128Z,0.20
2023-01-02T16:32:52.500Z,0.20
2023-01-02T16:38:00.245Z,0.30
2023-01-02T16:43:07.387Z,0.20
2023-01-02T16:48:12.861Z,0.20
2023-01-02T16:53:23.631Z,0.20
2023-01-02T16:58:25.331Z,0.17
2023-01-02T17:03:26.962Z,0.30
2023-01-02T17:08:28.458Z,0.28
2023-01-02T17:13:29.869Z,0.10
2023-01-02T17:18:31.240Z,0.20
2023-01-02T17:23:32.647Z,0.30
2023-01-02T17:28:34.033Z,0.20
2023-01-02T17:33:35.476Z,0.40
2023-01-02T17:38:36.858Z,0.20
2023-01-02T17:43:38.296Z,0.20
2023-01-02T17:48:59.671Z,0.30
2023-01-02T17:54:03.053Z,0.20
2023-01-02T17:59:04.730Z,0.20
2023-01-02T18:04:06.393Z,0.22
2023-01-02T18:09:07.918Z,0.30
2023-01-02T18:14:14.253Z,0.10
2023-01-02T18:19:21.183Z,0.30
2023-01-02T18:24:30.532Z,0.20
2023-01-02T18:29:31.903Z,0.30
2023-01-02T18:34:48.061Z,0.13
2023-01-02T18:39:49.871Z,0.20
2023-01-02T18:44:51.254Z,0.10
2023-01-02T18:49:52.966Z,0.10
2023-01-02T18:55:19.085Z,0.17
2023-01-02T19:00:22.899Z,0.38
2023-01-02T19:05:30.713Z,0.30
2023-01-02T19:10:38.799Z,0.20
2023-01-02T19:15:58.853Z,0.30
2023-01-02T19:21:05.806Z,0.30
2023-01-02T19:26:31.876Z,0.20
2023-01-02T19:32:02.375Z,0.20
2023-01-02T19:37:12.419Z,0.22
2023-01-02T19:42:19.593Z,0.20
2023-01-02T19:47:23.251Z,0.15
2023-01-02T19:52:25.135Z,0.17
2023-01-02T19:57:26.526Z,0.20
2023-01-02T20:02:28.106Z,0.20
2023-01-02T20:07:29.571Z,0.13
2023-01-02T20:12:33.144Z,0.10
2023-01-02T20:17:34.846Z,0.20
2023-01-02T20:22:36.400Z,0.20
2023-01-02T20:27:37.774Z,0.20
2023-01-02T20:32:39.144Z,0.20
2023-01-02T20:37:40.546Z,0.20
2023-01-02T20:42:41.949Z,0.20
2023-01-02T20:47:43.325Z,0.30
2023-01-02T20:52:44.692Z,0.10
2023-01-02T20:57:48.517Z,0.10
2023-01-02T21:02:53.062Z,0.10
2023-01-02T21:07:54.660Z,0.20
2023-01-02T21:13:07.806Z,0.10
2023-01-02T21:18:09.270Z,0.20
2023-01-02T21:23:10.661Z,0.00
2023-01-02T21:28:12.406Z,0.10
2023-01-02T21:33:16.329Z,0.10
2023-01-02T21:38:18.463Z,0.10
2023-01-02T21:43:20.709Z,0.10
2023-01-02T21:48:22.078Z,0.10
2023-01-02T21:53:23.470Z,0.10
2023-01-02T21:58:24.849Z,0.10
2023-01-02T22:03:26.377Z,0.10
2023-01-02T22:08:27.856Z,0.10
2023-01-02T22:13:29.264Z,0.10
2023-01-02T22:18:36.220Z,0.03
2023-01-02T22:23:39.384Z,0.10
2023-01-02T22:28:42.769Z,0.10
2023-01-02T22:33:44.190Z,0.10
2023-01-02T22:39:17.495Z,0.10
2023-01-02T22:44:11.124Z,0.05
2023-01-02T22:49:14.510Z,0.00
2023-01-02T22:54:16.785Z,0.00
2023-01-02T22:59:18.145Z,0.00
2023-01-02T23:04:23.862Z,0.10
2023-01-02T23:14:26.604Z,0.10
2023-01-02T23:19:27.994Z,0.10
2023-01-02T23:24:31.462Z,0.10
2023-01-02T23:29:32.844Z,0.10
2023-01-02T23:34:34.231Z,0.00
2023-01-02T23:39:35.628Z,0.10
2023-01-02T23:44:38.271Z,0.10
2023-01-02T23:49:39.657Z,0.10
2023-01-02T23:54:41.032Z,0.00
2023-01-02T23:59:42.404Z,0.00
